createdAt,value
2019-04-29T00:02:32.386Z,10.40
2019-04-29T00:05:01.361Z,10.30
2019-04-29T00:07:30.530Z,10.30
2019-04-29T00:09:59.656Z,10.20
2019-04-29T00:12:29.476Z,10.40
2019-04-29T00:15:08.942Z,10.40
2019-04-29T00:17:56.989Z,10.40
2019-04-29T00:20:32.869Z,10.30
2019-04-29T00:23:01.888Z,10.30
2019-04-29T00:25:30.941Z,10.30
2019-04-29T00:27:59.859Z,10.30
2019-04-29T00:30:28.882Z,10.30
2019-04-29T00:32:58.119Z,10.30
2019-04-29T00:35:27.506Z,10.40
2019-04-29T00:38:14.272Z,10.30
2019-04-29T00:41:05.366Z,10.30
2019-04-29T00:43:51.478Z,10.30
2019-04-29T00:46:20.524Z,10.30
2019-04-29T00:48:49.755Z,10.20
2019-04-29T00:51:18.766Z,10.20
2019-04-29T00:53:49.375Z,10.20
2019-04-29T00:56:18.648Z,10.20
2019-04-29T00:58:47.723Z,10.30
2019-04-29T01:01:22.562Z,10.20
2019-04-29T01:03:51.619Z,10.30
2019-04-29T01:06:20.621Z,10.30
2019-04-29T01:08:49.537Z,10.30
2019-04-29T01:11:18.533Z,10.20
2019-04-29T01:13:47.569Z,10.20
2019-04-29T01:16:16.625Z,10.10
2019-04-29T01:18:45.698Z,10.00
2019-04-29T01:21:14.691Z,10.00
2019-04-29T01:23:44.047Z,10.10
2019-04-29T01:26:25.682Z,10.20
2019-04-29T01:28:55.785Z,10.20
2019-04-29T01:31:28.794Z,10.20
2019-04-29T01:34:03.083Z,10.20
2019-04-29T01:36:39.983Z,10.10
2019-04-29T01:39:11.301Z,10.20
2019-04-29T01:41:52.210Z,10.20
2019-04-29T01:44:21.710Z,10.20
2019-04-29T01:46:50.777Z,10.20
2019-04-29T01:49:19.722Z,10.20
2019-04-29T01:51:48.724Z,10.20
2019-04-29T01:54:18.018Z,10.10
2019-04-29T01:56:47.187Z,10.10
2019-04-29T01:59:16.374Z,10.10
2019-04-29T02:01:45.535Z,10.10
2019-04-29T02:04:14.475Z,10.10
2019-04-29T02:06:43.395Z,10.10
2019-04-29T02:09:18.393Z,10.00
2019-04-29T02:11:47.251Z,10.00
2019-04-29T02:14:16.447Z,9.90
2019-04-29T02:16:45.405Z,9.90
2019-04-29T02:19:14.333Z,9.80
2019-04-29T02:21:44.938Z,9.80
2019-04-29T02:24:18.468Z,9.80
2019-04-29T02:26:47.411Z,9.80
2019-04-29T02:29:16.389Z,9.80
2019-04-29T02:31:46.904Z,9.80
2019-04-29T02:34:16.116Z,9.80
2019-04-29T02:36:45.037Z,9.80
2019-04-29T02:39:33.509Z,9.80
2019-04-29T02:42:27.847Z,9.80
2019-04-29T02:45:00.541Z,9.80
2019-04-29T02:47:29.552Z,9.70
2019-04-29T02:49:58.562Z,9.70
2019-04-29T02:52:27.506Z,9.70
2019-04-29T02:54:59.274Z,9.70
2019-04-29T02:57:33.556Z,9.70
2019-04-29T03:00:21.803Z,9.70
2019-04-29T03:03:00.286Z,9.70
2019-04-29T03:05:34.086Z,9.70
2019-04-29T03:08:03.085Z,9.70
2019-04-29T03:10:32.462Z,9.60
2019-04-29T03:13:01.403Z,9.70
2019-04-29T03:15:33.116Z,9.60
2019-04-29T03:18:02.408Z,9.70
2019-04-29T03:20:47.120Z,9.60
2019-04-29T03:23:18.163Z,9.60
2019-04-29T03:25:47.245Z,9.50
2019-04-29T03:28:16.174Z,9.50
2019-04-29T03:30:45.523Z,9.60
2019-04-29T03:33:14.481Z,9.70
2019-04-29T03:35:43.651Z,9.60
2019-04-29T03:38:13.175Z,9.60
2019-04-29T03:40:42.215Z,9.60
2019-04-29T03:43:11.210Z,9.60
2019-04-29T03:45:40.495Z,9.70
2019-04-29T03:48:09.513Z,9.60
2019-04-29T03:50:38.698Z,9.70
2019-04-29T03:53:07.646Z,9.60
2019-04-29T03:55:39.684Z,9.50
2019-04-29T03:58:07.252Z,9.50
2019-04-29T04:00:36.252Z,9.60
2019-04-29T04:03:23.025Z,9.60
2019-04-29T04:06:02.204Z,9.60
2019-04-29T04:08:39.757Z,9.70
2019-04-29T04:11:08.738Z,9.60
2019-04-29T04:13:37.713Z,9.60
2019-04-29T04:16:08.357Z,9.70
2019-04-29T04:18:37.368Z,9.70
2019-04-29T04:21:06.678Z,9.70
2019-04-29T04:23:35.975Z,9.70
2019-04-29T04:26:05.040Z,9.70
2019-04-29T04:28:34.064Z,9.70
2019-04-29T04:31:06.769Z,9.70
2019-04-29T04:33:33.783Z,9.70
2019-04-29T04:36:02.695Z,9.70
2019-04-29T04:38:31.658Z,9.70
2019-04-29T04:41:06.618Z,9.70
2019-04-29T04:43:35.703Z,9.70
2019-04-29T04:46:04.796Z,9.70
2019-04-29T04:48:33.974Z,9.80
2019-04-29T04:51:02.912Z,9.80
2019-04-29T04:53:31.870Z,9.90
2019-04-29T04:56:01.950Z,9.90
2019-04-29T04:58:30.910Z,9.90
2019-04-29T05:01:00.240Z,10.00
2019-04-29T05:03:29.249Z,9.90
2019-04-29T05:05:58.292Z,9.90
2019-04-29T05:08:27.262Z,9.90
2019-04-29T05:10:56.297Z,10.00
2019-04-29T05:13:28.615Z,10.00
2019-04-29T05:15:58.003Z,10.00
2019-04-29T05:18:26.986Z,10.00
2019-04-29T05:20:56.241Z,10.00
2019-04-29T05:23:25.119Z,10.00
2019-04-29T05:25:54.038Z,10.00
2019-04-29T05:28:23.002Z,10.10
2019-04-29T05:30:51.850Z,10.10
2019-04-29T05:33:21.101Z,10.10
2019-04-29T05:36:05.234Z,10.10
2019-04-29T05:38:38.444Z,10.10
2019-04-29T05:41:07.647Z,10.10
2019-04-29T05:44:14.094Z,10.10
2019-04-29T05:46:49.685Z,10.10
2019-04-29T05:49:23.400Z,10.20
2019-04-29T05:52:23.431Z,10.20
2019-04-29T05:54:52.387Z,10.30
2019-04-29T05:57:25.344Z,10.40
2019-04-29T05:59:52.174Z,10.50
2019-04-29T06:02:24.010Z,10.50
2019-04-29T06:04:53.958Z,10.60
2019-04-29T06:07:23.217Z,10.50
2019-04-29T06:09:53.587Z,10.60
2019-04-29T06:12:22.499Z,10.60
2019-04-29T06:14:51.451Z,10.50
2019-04-29T06:17:20.416Z,10.60
2019-04-29T06:19:49.347Z,10.50
2019-04-29T06:22:18.300Z,10.40
2019-04-29T06:24:47.226Z,10.40
2019-04-29T06:27:16.115Z,10.30
2019-04-29T06:29:45.353Z,10.20
2019-04-29T06:32:14.367Z,10.10
2019-04-29T06:34:43.567Z,10.00
2019-04-29T06:37:12.547Z,10.10
2019-04-29T06:39:41.517Z,10.10
2019-04-29T06:42:10.811Z,10.10
2019-04-29T06:44:39.804Z,10.00
2019-04-29T06:47:09.208Z,10.00
2019-04-29T06:49:38.192Z,10.10
2019-04-29T06:52:07.436Z,10.20
2019-04-29T06:54:36.433Z,10.20
2019-04-29T06:57:05.315Z,10.20
2019-04-29T06:59:34.570Z,10.30
